sensor_id;sensor_type;location;lat;lon;timestamp;temperature;humidity
42365;DHT22;28498;54.400;18.566;2022-10-13T00:00:59;8.80;99.90
42365;DHT22;28498;54.400;18.566;2022-10-13T00:03:32;8.80;99.90
42365;DHT22;28498;54.400;18.566;2022-10-13T00:05:59;8.80;99.90
42365;DHT22;28498;54.400;18.566;2022-10-13T00:08:26;8.80;99.90
42365;DHT22;28498;54.400;18.566;2022-10-13T00:10:53;8.80;99.90
42365;DHT22;28498;54.400;18.566;2022-10-13T00:13:20;8.80;99.90
42365;DHT22;28498;54.400;18.566;2022-10-13T00:15:47;8.80;99.90
42365;DHT22;28498;54.400;18.566;2022-10-13T00:18:15;8.80;99.90
42365;DHT22;28498;54.400;18.566;2022-10-13T00:20:48;8.80;99.90
42365;DHT22;28498;54.400;18.566;2022-10-13T00:23:16;8.90;99.90
42365;DHT22;28498;54.400;18.566;2022-10-13T00:25:45;8.90;99.90
42365;DHT22;28498;54.400;18.566;2022-10-13T00:28:14;8.90;99.90
42365;DHT22;28498;54.400;18.566;2022-10-13T00:30:42;8.90;99.90
42365;DHT22;28498;54.400;18.566;2022-10-13T00:33:09;8.90;99.90
42365;DHT22;28498;54.400;18.566;2022-10-13T00:35:44;8.90;99.90
42365;DHT22;28498;54.400;18.566;2022-10-13T00:38:12;9.00;99.90
42365;DHT22;28498;54.400;18.566;2022-10-13T00:40:47;9.00;99.90
42365;DHT22;28498;54.400;18.566;2022-10-13T00:43:16;9.00;99.90
42365;DHT22;28498;54.400;18.566;2022-10-13T00:45:44;9.00;99.90
42365;DHT22;28498;54.400;18.566;2022-10-13T00:48:12;9.00;99.90
42365;DHT22;28498;54.400;18.566;2022-10-13T00:50:40;9.00;99.90
42365;DHT22;28498;54.400;18.566;2022-10-13T00:53:10;9.00;99.90
42365;DHT22;28498;54.400;18.566;2022-10-13T00:55:39;9.00;99.90
42365;DHT22;28498;54.400;18.566;2022-10-13T00:58:10;9.00;99.90
42365;DHT22;28498;54.400;18.566;2022-10-13T01:00:38;9.00;99.90
42365;DHT22;28498;54.400;18.566;2022-10-13T01:03:05;9.00;99.90
42365;DHT22;28498;54.400;18.566;2022-10-13T01:05:32;8.90;99.90
42365;DHT22;28498;54.400;18.566;2022-10-13T01:08:00;9.00;99.90
42365;DHT22;28498;54.400;18.566;2022-10-13T01:10:55;9.00;99.90
42365;DHT22;28498;54.400;18.566;2022-10-13T01:16:26;9.00;99.90
42365;DHT22;28498;54.400;18.566;2022-10-13T01:19:21;9.00;99.90
42365;DHT22;28498;54.400;18.566;2022-10-13T01:30:37;9.00;99.90
42365;DHT22;28498;54.400;18.566;2022-10-13T01:41:41;9.10;99.90
42365;DHT22;28498;54.400;18.566;2022-10-13T01:44:34;9.10;99.90
42365;DHT22;28498;54.400;18.566;2022-10-13T01:47:02;9.10;99.90
42365;DHT22;28498;54.400;18.566;2022-10-13T01:49:33;9.10;99.90
42365;DHT22;28498;54.400;18.566;2022-10-13T01:52:05;9.10;99.90
42365;DHT22;28498;54.400;18.566;2022-10-13T01:54:33;9.10;99.90
42365;DHT22;28498;54.400;18.566;2022-10-13T01:57:01;9.10;99.90
42365;DHT22;28498;54.400;18.566;2022-10-13T01:59:30;9.10;99.90
42365;DHT22;28498;54.400;18.566;2022-10-13T02:02:14;9.10;99.90
42365;DHT22;28498;54.400;18.566;2022-10-13T02:07:37;9.10;99.90
42365;DHT22;28498;54.400;18.566;2022-10-13T02:12:49;9.10;99.90
42365;DHT22;28498;54.400;18.566;2022-10-13T02:15:22;9.10;99.90
42365;DHT22;28498;54.400;18.566;2022-10-13T02:17:51;9.10;99.90
42365;DHT22;28498;54.400;18.566;2022-10-13T02:20:20;9.10;99.90
42365;DHT22;28498;54.400;18.566;2022-10-13T02:22:54;9.10;99.90
42365;DHT22;28498;54.400;18.566;2022-10-13T02:25:23;9.20;99.90
42365;DHT22;28498;54.400;18.566;2022-10-13T02:27:51;9.10;99.90
42365;DHT22;28498;54.400;18.566;2022-10-13T02:30:24;9.10;99.90
42365;DHT22;28498;54.400;18.566;2022-10-13T02:32:51;9.20;99.90
42365;DHT22;28498;54.400;18.566;2022-10-13T02:35:19;9.10;99.90
42365;DHT22;28498;54.400;18.566;2022-10-13T02:37:46;9.20;99.90
42365;DHT22;28498;54.400;18.566;2022-10-13T02:40:13;9.10;99.90
42365;DHT22;28498;54.400;18.566;2022-10-13T02:42:40;9.10;99.90
42365;DHT22;28498;54.400;18.566;2022-10-13T02:45:08;9.10;99.90
42365;DHT22;28498;54.400;18.566;2022-10-13T02:47:35;9.10;99.90
42365;DHT22;28498;54.400;18.566;2022-10-13T02:50:02;9.20;99.90
42365;DHT22;28498;54.400;18.566;2022-10-13T02:52:29;9.20;99.90
42365;DHT22;28498;54.400;18.566;2022-10-13T02:54:56;9.10;99.90
42365;DHT22;28498;54.400;18.566;2022-10-13T02:57:23;9.10;99.90
42365;DHT22;28498;54.400;18.566;2022-10-13T02:59:50;9.10;99.90
42365;DHT22;28498;54.400;18.566;2022-10-13T03:02:17;9.10;99.90
42365;DHT22;28498;54.400;18.566;2022-10-13T03:04:45;9.10;99.90
42365;DHT22;28498;54.400;18.566;2022-10-13T03:07:13;9.10;99.90
42365;DHT22;28498;54.400;18.566;2022-10-13T03:09:40;9.10;99.90
42365;DHT22;28498;54.400;18.566;2022-10-13T03:12:07;9.20;99.90
42365;DHT22;28498;54.400;18.566;2022-10-13T03:14:34;9.20;99.90
42365;DHT22;28498;54.400;18.566;2022-10-13T03:17:01;9.20;99.90
42365;DHT22;28498;54.400;18.566;2022-10-13T03:19:28;9.20;99.90
42365;DHT22;28498;54.400;18.566;2022-10-13T03:21:55;9.10;99.90
42365;DHT22;28498;54.400;18.566;2022-10-13T03:24:22;9.20;99.90
42365;DHT22;28498;54.400;18.566;2022-10-13T03:26:49;9.10;99.90
42365;DHT22;28498;54.400;18.566;2022-10-13T03:29:17;9.10;99.90
42365;DHT22;28498;54.400;18.566;2022-10-13T03:31:44;9.10;99.90
42365;DHT22;28498;54.400;18.566;2022-10-13T03:34:11;9.10;99.90
42365;DHT22;28498;54.400;18.566;2022-10-13T03:36:39;9.10;99.90
42365;DHT22;28498;54.400;18.566;2022-10-13T03:39:06;9.10;99.90
42365;DHT22;28498;54.400;18.566;2022-10-13T03:41:33;9.10;99.90
42365;DHT22;28498;54.400;18.566;2022-10-13T03:44:00;9.10;99.90
42365;DHT22;28498;54.400;18.566;2022-10-13T03:46:29;9.20;99.90
42365;DHT22;28498;54.400;18.566;2022-10-13T03:48:56;9.20;99.90
42365;DHT22;28498;54.400;18.566;2022-10-13T03:51:24;9.20;99.90
42365;DHT22;28498;54.400;18.566;2022-10-13T03:53:51;9.20;99.90
42365;DHT22;28498;54.400;18.566;2022-10-13T03:56:21;9.20;99.90
42365;DHT22;28498;54.400;18.566;2022-10-13T03:58:49;9.20;99.90
42365;DHT22;28498;54.400;18.566;2022-10-13T04:01:22;9.20;99.90
42365;DHT22;28498;54.400;18.566;2022-10-13T04:03:51;9.20;99.90
42365;DHT22;28498;54.400;18.566;2022-10-13T04:06:19;9.20;99.90
42365;DHT22;28498;54.400;18.566;2022-10-13T04:08:47;9.20;99.90
42365;DHT22;28498;54.400;18.566;2022-10-13T04:11:15;9.20;99.90
42365;DHT22;28498;54.400;18.566;2022-10-13T04:13:43;9.10;99.90
42365;DHT22;28498;54.400;18.566;2022-10-13T04:16:23;9.20;99.90
42365;DHT22;28498;54.400;18.566;2022-10-13T04:18:56;9.20;99.90
42365;DHT22;28498;54.400;18.566;2022-10-13T04:21:25;9.20;99.90
42365;DHT22;28498;54.400;18.566;2022-10-13T04:23:57;9.20;99.90
42365;DHT22;28498;54.400;18.566;2022-10-13T04:26:26;9.20;99.90
42365;DHT22;28498;54.400;18.566;2022-10-13T04:28:55;9.20;99.90
42365;DHT22;28498;54.400;18.566;2022-10-13T04:31:23;9.20;99.90
42365;DHT22;28498;54.400;18.566;2022-10-13T04:33:50;9.20;99.90
42365;DHT22;28498;54.400;18.566;2022-10-13T04:36:18;9.20;99.90
42365;DHT22;28498;54.400;18.566;2022-10-13T04:38:46;9.20;99.90
42365;DHT22;28498;54.400;18.566;2022-10-13T04:41:14;9.20;99.90
42365;DHT22;28498;54.400;18.566;2022-10-13T04:43:42;9.20;99.90
42365;DHT22;28498;54.400;18.566;2022-10-13T04:46:12;9.20;99.90
42365;DHT22;28498;54.400;18.566;2022-10-13T04:48:40;9.10;99.90
42365;DHT22;28498;54.400;18.566;2022-10-13T04:51:09;9.10;99.90
42365;DHT22;28498;54.400;18.566;2022-10-13T04:53:37;9.10;99.90
42365;DHT22;28498;54.400;18.566;2022-10-13T04:56:08;9.00;99.90
42365;DHT22;28498;54.400;18.566;2022-10-13T04:58:35;9.00;99.90
42365;DHT22;28498;54.400;18.566;2022-10-13T05:01:04;9.00;99.90
42365;DHT22;28498;54.400;18.566;2022-10-13T05:03:33;8.90;99.90
42365;DHT22;28498;54.400;18.566;2022-10-13T05:06:00;8.90;99.90
42365;DHT22;28498;54.400;18.566;2022-10-13T05:08:27;8.90;99.90
42365;DHT22;28498;54.400;18.566;2022-10-13T05:10:55;8.90;99.90
42365;DHT22;28498;54.400;18.566;2022-10-13T05:13:23;8.80;99.90
42365;DHT22;28498;54.400;18.566;2022-10-13T05:15:51;8.80;99.90
42365;DHT22;28498;54.400;18.566;2022-10-13T05:18:18;8.80;99.90
42365;DHT22;28498;54.400;18.566;2022-10-13T05:20:45;8.70;99.90
42365;DHT22;28498;54.400;18.566;2022-10-13T05:23:13;8.70;99.90
42365;DHT22;28498;54.400;18.566;2022-10-13T05:25:40;8.70;99.90
42365;DHT22;28498;54.400;18.566;2022-10-13T05:28:07;8.80;99.90
42365;DHT22;28498;54.400;18.566;2022-10-13T05:30:35;8.80;99.90
42365;DHT22;28498;54.400;18.566;2022-10-13T05:33:02;8.70;99.90
42365;DHT22;28498;54.400;18.566;2022-10-13T05:35:29;8.80;99.90
42365;DHT22;28498;54.400;18.566;2022-10-13T05:37:56;8.70;99.90
42365;DHT22;28498;54.400;18.566;2022-10-13T05:40:23;8.70;99.90
42365;DHT22;28498;54.400;18.566;2022-10-13T05:42:51;8.60;99.90
42365;DHT22;28498;54.400;18.566;2022-10-13T05:45:20;8.50;99.90
42365;DHT22;28498;54.400;18.566;2022-10-13T05:47:48;8.40;99.90
42365;DHT22;28498;54.400;18.566;2022-10-13T05:50:15;8.30;99.90
42365;DHT22;28498;54.400;18.566;2022-10-13T05:52:42;8.30;99.90
42365;DHT22;28498;54.400;18.566;2022-10-13T05:55:10;8.20;99.90
42365;DHT22;28498;54.400;18.566;2022-10-13T05:57:41;8.10;99.90
42365;DHT22;28498;54.400;18.566;2022-10-13T06:00:13;8.10;99.90
42365;DHT22;28498;54.400;18.566;2022-10-13T06:02:53;8.00;99.90
42365;DHT22;28498;54.400;18.566;2022-10-13T06:05:25;8.00;99.90
42365;DHT22;28498;54.400;18.566;2022-10-13T06:07:53;8.00;99.90
42365;DHT22;28498;54.400;18.566;2022-10-13T06:10:22;8.00;99.90
42365;DHT22;28498;54.400;18.566;2022-10-13T06:12:50;8.00;99.90
42365;DHT22;28498;54.400;18.566;2022-10-13T06:15:17;8.00;99.90
42365;DHT22;28498;54.400;18.566;2022-10-13T06:17:44;8.00;99.90
42365;DHT22;28498;54.400;18.566;2022-10-13T06:20:11;8.00;99.90
42365;DHT22;28498;54.400;18.566;2022-10-13T06:22:38;8.00;99.90
42365;DHT22;28498;54.400;18.566;2022-10-13T06:25:06;8.10;99.90
42365;DHT22;28498;54.400;18.566;2022-10-13T06:27:33;8.20;99.90
42365;DHT22;28498;54.400;18.566;2022-10-13T06:30:00;8.20;99.90
42365;DHT22;28498;54.400;18.566;2022-10-13T06:32:27;8.30;99.90
42365;DHT22;28498;54.400;18.566;2022-10-13T06:34:55;8.30;99.90
42365;DHT22;28498;54.400;18.566;2022-10-13T06:37:22;8.40;99.90
42365;DHT22;28498;54.400;18.566;2022-10-13T06:39:53;8.40;99.90
42365;DHT22;28498;54.400;18.566;2022-10-13T06:42:20;8.50;99.90
42365;DHT22;28498;54.400;18.566;2022-10-13T06:44:48;8.60;99.90
42365;DHT22;28498;54.400;18.566;2022-10-13T06:47:15;8.70;99.90
42365;DHT22;28498;54.400;18.566;2022-10-13T06:49:42;8.80;99.90
42365;DHT22;28498;54.400;18.566;2022-10-13T06:52:09;8.80;99.90
42365;DHT22;28498;54.400;18.566;2022-10-13T06:58:22;8.90;99.90
42365;DHT22;28498;54.400;18.566;2022-10-13T07:00:49;9.00;99.90
42365;DHT22;28498;54.400;18.566;2022-10-13T07:07:04;9.20;99.90
42365;DHT22;28498;54.400;18.566;2022-10-13T07:09:31;9.30;99.90
42365;DHT22;28498;54.400;18.566;2022-10-13T07:11:58;9.40;99.90
42365;DHT22;28498;54.400;18.566;2022-10-13T07:14:25;9.40;99.90
42365;DHT22;28498;54.400;18.566;2022-10-13T07:16:52;9.40;99.90
42365;DHT22;28498;54.400;18.566;2022-10-13T07:19:19;9.50;99.90
42365;DHT22;28498;54.400;18.566;2022-10-13T07:21:46;9.60;99.90
42365;DHT22;28498;54.400;18.566;2022-10-13T07:24:13;9.70;99.90
42365;DHT22;28498;54.400;18.566;2022-10-13T07:26:40;9.70;99.90
42365;DHT22;28498;54.400;18.566;2022-10-13T07:29:07;9.70;99.90
42365;DHT22;28498;54.400;18.566;2022-10-13T07:31:35;9.80;99.90
42365;DHT22;28498;54.400;18.566;2022-10-13T07:34:02;9.90;99.90
42365;DHT22;28498;54.400;18.566;2022-10-13T07:36:31;10.00;99.90
42365;DHT22;28498;54.400;18.566;2022-10-13T07:39:00;10.00;99.90
42365;DHT22;28498;54.400;18.566;2022-10-13T07:41:28;10.10;99.90
42365;DHT22;28498;54.400;18.566;2022-10-13T07:43:56;10.10;99.90
42365;DHT22;28498;54.400;18.566;2022-10-13T07:46:23;10.10;99.90
42365;DHT22;28498;54.400;18.566;2022-10-13T07:48:52;10.20;99.90
42365;DHT22;28498;54.400;18.566;2022-10-13T07:51:20;10.30;99.90
42365;DHT22;28498;54.400;18.566;2022-10-13T07:53:48;10.40;99.90
42365;DHT22;28498;54.400;18.566;2022-10-13T08:00:21;10.60;99.90
42365;DHT22;28498;54.400;18.566;2022-10-13T08:02:49;10.70;99.90
42365;DHT22;28498;54.400;18.566;2022-10-13T08:05:21;10.70;99.90
42365;DHT22;28498;54.400;18.566;2022-10-13T08:07:48;10.80;99.90
42365;DHT22;28498;54.400;18.566;2022-10-13T08:10:19;10.80;99.90
42365;DHT22;28498;54.400;18.566;2022-10-13T08:12:47;10.90;99.90
42365;DHT22;28498;54.400;18.566;2022-10-13T08:15:14;11.10;99.90
42365;DHT22;28498;54.400;18.566;2022-10-13T08:17:41;11.10;99.90
42365;DHT22;28498;54.400;18.566;2022-10-13T08:20:08;11.20;99.90
42365;DHT22;28498;54.400;18.566;2022-10-13T08:22:36;11.30;99.90
42365;DHT22;28498;54.400;18.566;2022-10-13T08:25:03;11.40;99.90
42365;DHT22;28498;54.400;18.566;2022-10-13T08:27:30;11.50;99.90
42365;DHT22;28498;54.400;18.566;2022-10-13T08:30:16;11.60;99.90
42365;DHT22;28498;54.400;18.566;2022-10-13T08:32:43;11.70;99.90
42365;DHT22;28498;54.400;18.566;2022-10-13T08:35:10;11.80;99.90
42365;DHT22;28498;54.400;18.566;2022-10-13T08:37:37;11.80;99.90
42365;DHT22;28498;54.400;18.566;2022-10-13T08:40:04;11.80;99.90
42365;DHT22;28498;54.400;18.566;2022-10-13T08:42:32;11.90;99.90
42365;DHT22;28498;54.400;18.566;2022-10-13T08:45:01;12.00;99.90
42365;DHT22;28498;54.400;18.566;2022-10-13T08:48:02;12.10;99.90
42365;DHT22;28498;54.400;18.566;2022-10-13T08:50:34;12.20;99.90
42365;DHT22;28498;54.400;18.566;2022-10-13T08:53:18;12.30;99.90
42365;DHT22;28498;54.400;18.566;2022-10-13T08:55:51;12.40;99.90
42365;DHT22;28498;54.400;18.566;2022-10-13T08:58:22;12.50;99.90
42365;DHT22;28498;54.400;18.566;2022-10-13T09:08:56;12.60;99.90
42365;DHT22;28498;54.400;18.566;2022-10-13T09:11:29;12.70;99.90
42365;DHT22;28498;54.400;18.566;2022-10-13T09:13:58;12.80;99.90
42365;DHT22;28498;54.400;18.566;2022-10-13T09:16:41;12.80;99.90
42365;DHT22;28498;54.400;18.566;2022-10-13T09:21:38;12.90;99.90
42365;DHT22;28498;54.400;18.566;2022-10-13T09:24:10;13.00;99.90
42365;DHT22;28498;54.400;18.566;2022-10-13T09:26:38;13.10;99.90
42365;DHT22;28498;54.400;18.566;2022-10-13T09:29:25;13.10;99.90
42365;DHT22;28498;54.400;18.566;2022-10-13T09:32:20;13.20;99.90
42365;DHT22;28498;54.400;18.566;2022-10-13T09:34:49;13.30;99.90
42365;DHT22;28498;54.400;18.566;2022-10-13T09:37:24;13.30;99.90
42365;DHT22;28498;54.400;18.566;2022-10-13T09:40:19;13.40;99.90
42365;DHT22;28498;54.400;18.566;2022-10-13T09:42:52;13.40;99.90
42365;DHT22;28498;54.400;18.566;2022-10-13T09:45:20;13.50;99.90
42365;DHT22;28498;54.400;18.566;2022-10-13T09:47:52;13.50;99.90
42365;DHT22;28498;54.400;18.566;2022-10-13T09:50:23;13.60;99.90
42365;DHT22;28498;54.400;18.566;2022-10-13T09:52:51;13.60;99.90
42365;DHT22;28498;54.400;18.566;2022-10-13T09:55:30;13.70;99.90
42365;DHT22;28498;54.400;18.566;2022-10-13T09:58:24;13.70;99.90
42365;DHT22;28498;54.400;18.566;2022-10-13T10:00:53;13.80;99.90
42365;DHT22;28498;54.400;18.566;2022-10-13T10:03:31;13.80;99.90
42365;DHT22;28498;54.400;18.566;2022-10-13T10:06:03;13.70;99.90
42365;DHT22;28498;54.400;18.566;2022-10-13T10:11:39;13.80;99.90
42365;DHT22;28498;54.400;18.566;2022-10-13T10:14:26;13.90;99.90
42365;DHT22;28498;54.400;18.566;2022-10-13T10:25:11;14.00;99.90
42365;DHT22;28498;54.400;18.566;2022-10-13T10:27:44;14.10;99.90
42365;DHT22;28498;54.400;18.566;2022-10-13T10:30:17;14.20;99.90
42365;DHT22;28498;54.400;18.566;2022-10-13T10:35:18;14.30;99.90
42365;DHT22;28498;54.400;18.566;2022-10-13T10:46:50;14.50;99.90
42365;DHT22;28498;54.400;18.566;2022-10-13T10:49:27;14.50;99.90
42365;DHT22;28498;54.400;18.566;2022-10-13T10:51:57;14.50;99.90
42365;DHT22;28498;54.400;18.566;2022-10-13T10:54:54;14.50;99.90
42365;DHT22;28498;54.400;18.566;2022-10-13T10:57:25;14.40;99.90
42365;DHT22;28498;54.400;18.566;2022-10-13T11:00:05;14.30;99.90
42365;DHT22;28498;54.400;18.566;2022-10-13T11:06:02;14.50;99.90
42365;DHT22;28498;54.400;18.566;2022-10-13T11:16:34;14.50;99.90
42365;DHT22;28498;54.400;18.566;2022-10-13T11:52:01;14.80;99.90
42365;DHT22;28498;54.400;18.566;2022-10-13T11:57:21;14.90;99.90
42365;DHT22;28498;54.400;18.566;2022-10-13T11:59:49;14.80;99.90
42365;DHT22;28498;54.400;18.566;2022-10-13T12:02:24;14.90;99.90
42365;DHT22;28498;54.400;18.566;2022-10-13T12:05:02;14.90;99.90
42365;DHT22;28498;54.400;18.566;2022-10-13T12:07:38;14.80;99.90
42365;DHT22;28498;54.400;18.566;2022-10-13T12:10:16;14.80;99.90
42365;DHT22;28498;54.400;18.566;2022-10-13T12:12:48;14.80;99.90
42365;DHT22;28498;54.400;18.566;2022-10-13T12:15:45;14.90;99.90
42365;DHT22;28498;54.400;18.566;2022-10-13T12:18:27;14.80;99.90
42365;DHT22;28498;54.400;18.566;2022-10-13T12:20:57;14.80;99.90
42365;DHT22;28498;54.400;18.566;2022-10-13T12:23:25;14.90;99.90
42365;DHT22;28498;54.400;18.566;2022-10-13T12:25:53;15.00;99.90
42365;DHT22;28498;54.400;18.566;2022-10-13T12:28:29;14.90;99.90
42365;DHT22;28498;54.400;18.566;2022-10-13T12:30:58;14.90;99.90
42365;DHT22;28498;54.400;18.566;2022-10-13T12:33:29;14.90;99.90
42365;DHT22;28498;54.400;18.566;2022-10-13T12:36:16;14.90;99.90
42365;DHT22;28498;54.400;18.566;2022-10-13T12:38:52;14.90;99.60
42365;DHT22;28498;54.400;18.566;2022-10-13T12:41:28;14.80;99.90
42365;DHT22;28498;54.400;18.566;2022-10-13T12:53:20;14.70;99.90
42365;DHT22;28498;54.400;18.566;2022-10-13T12:55:54;14.70;99.90
42365;DHT22;28498;54.400;18.566;2022-10-13T12:58:30;14.70;99.90
42365;DHT22;28498;54.400;18.566;2022-10-13T13:03:42;14.70;99.90
42365;DHT22;28498;54.400;18.566;2022-10-13T13:08:42;14.70;99.90
42365;DHT22;28498;54.400;18.566;2022-10-13T13:11:23;14.70;99.90
42365;DHT22;28498;54.400;18.566;2022-10-13T13:20:25;14.60;99.90
42365;DHT22;28498;54.400;18.566;2022-10-13T13:22:53;14.50;99.90
42365;DHT22;28498;54.400;18.566;2022-10-13T13:25:20;14.50;99.90
42365;DHT22;28498;54.400;18.566;2022-10-13T13:27:48;14.40;99.90
42365;DHT22;28498;54.400;18.566;2022-10-13T13:30:18;14.30;99.90
42365;DHT22;28498;54.400;18.566;2022-10-13T13:32:46;14.30;99.90
42365;DHT22;28498;54.400;18.566;2022-10-13T13:35:13;14.30;99.90
42365;DHT22;28498;54.400;18.566;2022-10-13T13:37:43;14.30;99.90
42365;DHT22;28498;54.400;18.566;2022-10-13T13:40:19;14.30;99.90
42365;DHT22;28498;54.400;18.566;2022-10-13T13:42:46;14.30;99.90
42365;DHT22;28498;54.400;18.566;2022-10-13T13:45:14;14.30;99.90
42365;DHT22;28498;54.400;18.566;2022-10-13T13:47:42;14.30;99.90
42365;DHT22;28498;54.400;18.566;2022-10-13T13:52:43;14.30;99.90
42365;DHT22;28498;54.400;18.566;2022-10-13T13:55:10;14.10;99.90
42365;DHT22;28498;54.400;18.566;2022-10-13T13:57:37;14.10;99.90
42365;DHT22;28498;54.400;18.566;2022-10-13T14:00:05;14.10;99.90
42365;DHT22;28498;54.400;18.566;2022-10-13T14:02:32;14.10;99.90
42365;DHT22;28498;54.400;18.566;2022-10-13T14:04:59;14.10;99.90
42365;DHT22;28498;54.400;18.566;2022-10-13T14:07:26;14.10;99.90
42365;DHT22;28498;54.400;18.566;2022-10-13T14:09:53;14.00;99.90
42365;DHT22;28498;54.400;18.566;2022-10-13T14:12:31;14.00;99.90
42365;DHT22;28498;54.400;18.566;2022-10-13T14:14:58;14.00;99.90
42365;DHT22;28498;54.400;18.566;2022-10-13T14:17:26;13.90;99.90
42365;DHT22;28498;54.400;18.566;2022-10-13T14:19:54;14.00;99.90
42365;DHT22;28498;54.400;18.566;2022-10-13T14:22:21;13.90;99.90
42365;DHT22;28498;54.400;18.566;2022-10-13T14:24:49;13.90;99.90
42365;DHT22;28498;54.400;18.566;2022-10-13T14:27:16;13.80;99.90
42365;DHT22;28498;54.400;18.566;2022-10-13T14:29:43;13.80;99.90
42365;DHT22;28498;54.400;18.566;2022-10-13T14:32:10;13.70;99.90
42365;DHT22;28498;54.400;18.566;2022-10-13T14:34:37;13.60;99.90
42365;DHT22;28498;54.400;18.566;2022-10-13T14:37:04;13.50;99.90
42365;DHT22;28498;54.400;18.566;2022-10-13T14:39:31;13.50;99.90
42365;DHT22;28498;54.400;18.566;2022-10-13T14:41:58;13.40;99.90
42365;DHT22;28498;54.400;18.566;2022-10-13T14:44:25;13.40;99.90
42365;DHT22;28498;54.400;18.566;2022-10-13T14:46:52;13.30;99.90
42365;DHT22;28498;54.400;18.566;2022-10-13T14:49:19;13.20;99.90
42365;DHT22;28498;54.400;18.566;2022-10-13T14:51:46;13.20;1.00
42365;DHT22;28498;54.400;18.566;2022-10-13T14:54:12;13.20;1.00
42365;DHT22;28498;54.400;18.566;2022-10-13T14:56:39;13.10;9.00
42365;DHT22;28498;54.400;18.566;2022-10-13T14:59:07;13.10;1.00
42365;DHT22;28498;54.400;18.566;2022-10-13T15:01:35;13.10;1.00
42365;DHT22;28498;54.400;18.566;2022-10-13T15:04:03;13.00;99.90
42365;DHT22;28498;54.400;18.566;2022-10-13T15:06:31;12.90;99.90
42365;DHT22;28498;54.400;18.566;2022-10-13T15:08:58;12.80;99.90
42365;DHT22;28498;54.400;18.566;2022-10-13T15:11:26;12.80;99.90
42365;DHT22;28498;54.400;18.566;2022-10-13T15:13:53;12.80;99.90
42365;DHT22;28498;54.400;18.566;2022-10-13T15:16:23;12.70;99.90
42365;DHT22;28498;54.400;18.566;2022-10-13T15:18:51;12.60;1.00
42365;DHT22;28498;54.400;18.566;2022-10-13T15:21:19;12.60;1.00
42365;DHT22;28498;54.400;18.566;2022-10-13T15:23:46;12.60;1.00
42365;DHT22;28498;54.400;18.566;2022-10-13T15:26:15;12.50;31.60
42365;DHT22;28498;54.400;18.566;2022-10-13T15:28:44;12.50;92.10
42365;DHT22;28498;54.400;18.566;2022-10-13T15:31:12;12.50;99.90
42365;DHT22;28498;54.400;18.566;2022-10-13T15:33:51;12.40;99.90
42365;DHT22;28498;54.400;18.566;2022-10-13T15:36:20;12.40;99.90
42365;DHT22;28498;54.400;18.566;2022-10-13T15:38:47;12.40;99.90
42365;DHT22;28498;54.400;18.566;2022-10-13T15:41:14;12.30;1.00
42365;DHT22;28498;54.400;18.566;2022-10-13T15:43:42;12.30;16.80
42365;DHT22;28498;54.400;18.566;2022-10-13T15:46:14;12.20;99.90
42365;DHT22;28498;54.400;18.566;2022-10-13T15:48:48;12.20;99.90
42365;DHT22;28498;54.400;18.566;2022-10-13T15:51:18;12.20;99.90
42365;DHT22;28498;54.400;18.566;2022-10-13T15:53:47;12.20;99.90
42365;DHT22;28498;54.400;18.566;2022-10-13T15:56:22;12.10;1.00
42365;DHT22;28498;54.400;18.566;2022-10-13T15:58:49;12.20;1.00
42365;DHT22;28498;54.400;18.566;2022-10-13T16:01:16;12.10;1.00
42365;DHT22;28498;54.400;18.566;2022-10-13T16:03:44;12.10;1.00
42365;DHT22;28498;54.400;18.566;2022-10-13T16:06:11;12.10;1.00
42365;DHT22;28498;54.400;18.566;2022-10-13T16:08:40;12.10;99.90
42365;DHT22;28498;54.400;18.566;2022-10-13T16:11:11;12.10;78.80
42365;DHT22;28498;54.400;18.566;2022-10-13T16:13:39;12.10;63.00
42365;DHT22;28498;54.400;18.566;2022-10-13T16:16:06;12.10;99.90
42365;DHT22;28498;54.400;18.566;2022-10-13T16:18:35;12.00;99.90
42365;DHT22;28498;54.400;18.566;2022-10-13T16:21:32;12.00;99.90
42365;DHT22;28498;54.400;18.566;2022-10-13T16:23:59;11.90;99.90
42365;DHT22;28498;54.400;18.566;2022-10-13T16:26:26;11.90;99.90
42365;DHT22;28498;54.400;18.566;2022-10-13T16:28:54;11.90;1.00
42365;DHT22;28498;54.400;18.566;2022-10-13T16:31:22;11.80;91.60
42365;DHT22;28498;54.400;18.566;2022-10-13T16:33:49;11.80;99.90
42365;DHT22;28498;54.400;18.566;2022-10-13T16:36:18;11.80;87.30
42365;DHT22;28498;54.400;18.566;2022-10-13T16:38:45;11.70;1.00
42365;DHT22;28498;54.400;18.566;2022-10-13T16:41:15;11.70;99.90
42365;DHT22;28498;54.400;18.566;2022-10-13T16:43:43;11.70;1.00
42365;DHT22;28498;54.400;18.566;2022-10-13T16:46:12;11.70;89.00
42365;DHT22;28498;54.400;18.566;2022-10-13T16:48:41;11.70;1.00
42365;DHT22;28498;54.400;18.566;2022-10-13T16:51:12;11.70;71.20
42365;DHT22;28498;54.400;18.566;2022-10-13T16:53:40;11.60;1.00
42365;DHT22;28498;54.400;18.566;2022-10-13T16:56:08;11.60;1.00
42365;DHT22;28498;54.400;18.566;2022-10-13T16:58:35;11.60;48.20
42365;DHT22;28498;54.400;18.566;2022-10-13T17:01:04;11.60;99.90
42365;DHT22;28498;54.400;18.566;2022-10-13T17:03:32;11.50;99.90
42365;DHT22;28498;54.400;18.566;2022-10-13T17:05:58;11.50;99.90
42365;DHT22;28498;54.400;18.566;2022-10-13T17:08:25;11.40;99.90
42365;DHT22;28498;54.400;18.566;2022-10-13T17:10:52;11.40;99.90
42365;DHT22;28498;54.400;18.566;2022-10-13T17:13:24;11.40;99.90
42365;DHT22;28498;54.400;18.566;2022-10-13T17:15:52;11.30;99.90
42365;DHT22;28498;54.400;18.566;2022-10-13T17:18:20;11.30;1.00
42365;DHT22;28498;54.400;18.566;2022-10-13T17:21:03;11.20;1.00
42365;DHT22;28498;54.400;18.566;2022-10-13T17:23:31;11.10;99.90
42365;DHT22;28498;54.400;18.566;2022-10-13T17:26:03;11.10;99.90
42365;DHT22;28498;54.400;18.566;2022-10-13T17:28:32;11.10;99.90
42365;DHT22;28498;54.400;18.566;2022-10-13T17:31:05;11.10;99.90
42365;DHT22;28498;54.400;18.566;2022-10-13T17:33:33;11.10;99.90
42365;DHT22;28498;54.400;18.566;2022-10-13T17:39:48;11.10;99.90
42365;DHT22;28498;54.400;18.566;2022-10-13T17:42:15;11.00;99.90
42365;DHT22;28498;54.400;18.566;2022-10-13T17:44:42;11.00;99.90
42365;DHT22;28498;54.400;18.566;2022-10-13T17:47:09;11.00;1.00
42365;DHT22;28498;54.400;18.566;2022-10-13T17:49:36;10.90;1.00
42365;DHT22;28498;54.400;18.566;2022-10-13T17:52:03;10.90;66.80
42365;DHT22;28498;54.400;18.566;2022-10-13T17:54:30;10.80;99.90
42365;DHT22;28498;54.400;18.566;2022-10-13T17:56:57;10.70;99.90
42365;DHT22;28498;54.400;18.566;2022-10-13T17:59:24;10.60;99.90
42365;DHT22;28498;54.400;18.566;2022-10-13T18:01:50;10.50;99.90
42365;DHT22;28498;54.400;18.566;2022-10-13T18:04:18;10.40;99.90